createdAt,value
2022-10-10T00:01:38.257Z,99791.97
2022-10-10T00:04:07.916Z,99785.06
2022-10-10T00:06:36.524Z,99786.84
2022-10-10T00:09:06.798Z,99792.97
2022-10-10T00:11:36.337Z,99803.44
2022-10-10T00:14:05.011Z,99796.81
2022-10-10T00:16:33.435Z,99804.50
2022-10-10T00:19:01.851Z,99805.78
2022-10-10T00:21:30.223Z,99812.44
2022-10-10T00:23:58.687Z,99815.75
2022-10-10T00:26:26.991Z,99817.53
2022-10-10T00:28:55.485Z,99828.00
2022-10-10T00:31:23.891Z,99830.06
2022-10-10T00:33:52.383Z,99835.66
2022-10-10T00:36:22.287Z,99831.06
2022-10-10T00:38:50.711Z,99831.31
2022-10-10T00:41:19.223Z,99842.56
2022-10-10T00:44:13.773Z,99846.66
2022-10-10T00:46:42.891Z,99850.75
2022-10-10T00:49:20.855Z,99847.69
2022-10-10T00:51:52.757Z,99857.63
2022-10-10T00:54:24.484Z,99860.19
2022-10-10T00:57:00.226Z,99855.59
2022-10-10T00:59:33.643Z,99871.44
2022-10-10T01:02:02.185Z,99883.44
2022-10-10T01:04:34.858Z,99881.13
2022-10-10T01:07:07.222Z,99875.53
2022-10-10T01:09:39.274Z,99884.47
2022-10-10T01:12:19.434Z,99890.59
2022-10-10T01:14:56.212Z,99892.66
2022-10-10T01:17:28.544Z,99887.53
2022-10-10T01:20:17.987Z,99896.72
2022-10-10T01:23:08.790Z,99896.19
2022-10-10T01:25:46.864Z,99902.84
2022-10-10T01:28:30.751Z,99907.69
2022-10-10T01:31:00.927Z,99908.19
2022-10-10T01:33:46.885Z,99913.81
2022-10-10T01:36:22.675Z,99914.03
2022-10-10T01:39:20.180Z,99916.09
2022-10-10T01:42:07.496Z,99918.63
2022-10-10T01:44:36.403Z,99922.47
2022-10-10T01:47:04.844Z,99930.63
2022-10-10T01:49:35.938Z,99926.28
2022-10-10T01:52:30.197Z,99943.69
2022-10-10T01:55:12.585Z,99935.00
2022-10-10T01:57:49.565Z,99932.16
2022-10-10T02:00:19.786Z,99929.84
2022-10-10T02:02:55.598Z,99937.47
2022-10-10T02:05:31.227Z,99927.47
2022-10-10T02:08:15.327Z,99931.03
2022-10-10T02:10:53.892Z,99925.63
2022-10-10T02:13:29.553Z,99924.84
2022-10-10T02:16:02.165Z,99918.63
2022-10-10T02:18:35.017Z,99920.13
2022-10-10T02:21:07.802Z,99923.72
2022-10-10T02:23:37.139Z,99920.88
2022-10-10T02:26:05.996Z,99920.81
2022-10-10T02:28:43.058Z,99916.97
2022-10-10T02:31:17.519Z,99917.19
2022-10-10T02:33:57.608Z,99916.16
2022-10-10T02:36:28.338Z,99914.09
2022-10-10T02:38:58.829Z,99909.69
2022-10-10T02:41:29.000Z,99910.69
2022-10-10T02:43:57.977Z,99907.59
2022-10-10T02:46:26.609Z,99901.66
2022-10-10T02:48:55.055Z,99904.72
2022-10-10T02:51:25.648Z,99916.47
2022-10-10T02:53:56.990Z,99907.22
2022-10-10T02:56:25.396Z,99906.94
2022-10-10T02:58:53.747Z,99915.38
2022-10-10T03:01:22.183Z,99912.78
2022-10-10T03:03:50.836Z,99912.25
2022-10-10T03:06:19.222Z,99912.50
2022-10-10T03:08:47.531Z,99914.00
2022-10-10T03:11:16.019Z,99909.91
2022-10-10T03:13:44.445Z,99901.44
2022-10-10T03:16:13.094Z,99909.13
2022-10-10T03:18:41.653Z,99895.78
2022-10-10T03:21:10.090Z,99902.19
2022-10-10T03:23:38.630Z,99897.78
2022-10-10T03:26:07.274Z,99890.28
2022-10-10T03:28:37.654Z,99900.69
2022-10-10T03:31:07.037Z,99892.41
2022-10-10T03:33:36.531Z,99895.94
2022-10-10T03:36:05.465Z,99894.34
2022-10-10T03:38:34.029Z,99889.47
2022-10-10T03:41:02.384Z,99886.34
2022-10-10T03:43:30.769Z,99884.28
2022-10-10T03:45:59.121Z,99886.56
2022-10-10T03:48:27.536Z,99881.41
2022-10-10T03:50:55.885Z,99876.22
2022-10-10T03:53:24.613Z,99871.28
2022-10-10T03:55:55.816Z,99871.22
2022-10-10T03:58:24.411Z,99869.09
2022-10-10T04:01:01.093Z,99876.66
2022-10-10T04:03:30.735Z,99871.44
2022-10-10T04:05:59.488Z,99866.50
2022-10-10T04:08:29.169Z,99861.31
2022-10-10T04:10:57.884Z,99846.41
2022-10-10T04:13:28.458Z,99844.28
2022-10-10T04:15:58.301Z,99842.38
2022-10-10T04:18:29.510Z,99833.59
2022-10-10T04:20:58.037Z,99824.19
2022-10-10T04:23:26.421Z,99818.22
2022-10-10T04:25:55.905Z,99822.25
2022-10-10T04:28:24.372Z,99820.63
2022-10-10T04:30:52.903Z,99814.66
2022-10-10T04:33:21.288Z,99816.72
2022-10-10T04:35:51.130Z,99818.78
2022-10-10T04:38:22.242Z,99810.06
2022-10-10T04:40:51.836Z,99816.06
2022-10-10T04:43:20.608Z,99808.44
2022-10-10T04:45:49.180Z,99810.06
2022-10-10T04:48:17.558Z,99809.59
2022-10-10T04:50:45.952Z,99793.47
2022-10-10T04:53:14.347Z,99791.19
2022-10-10T04:55:42.771Z,99784.00
2022-10-10T04:58:11.213Z,99785.53
2022-10-10T05:00:42.958Z,99779.34
2022-10-10T05:03:13.529Z,99766.22
2022-10-10T05:05:41.894Z,99765.03
2022-10-10T05:08:10.247Z,99757.75
2022-10-10T05:10:40.195Z,99753.00
2022-10-10T05:13:12.081Z,99755.41
2022-10-10T05:15:41.196Z,99744.97
2022-10-10T05:18:09.840Z,99740.97
2022-10-10T05:20:38.444Z,99736.97
2022-10-10T05:23:06.871Z,99727.41
2022-10-10T05:25:35.283Z,99723.38
2022-10-10T05:28:03.558Z,99720.09
2022-10-10T05:30:31.890Z,99709.09
2022-10-10T05:33:00.755Z,99710.31
2022-10-10T05:35:29.078Z,99705.00
2022-10-10T05:37:57.593Z,99697.81
2022-10-10T05:40:26.383Z,99698.56
2022-10-10T05:42:54.900Z,99694.75
2022-10-10T05:45:23.275Z,99686.50
2022-10-10T05:47:51.732Z,99679.19
2022-10-10T05:50:40.712Z,99675.81
2022-10-10T05:53:09.106Z,99674.84
2022-10-10T05:55:37.681Z,99665.81
2022-10-10T05:58:06.913Z,99661.78
2022-10-10T06:00:36.098Z,99655.72
2022-10-10T06:03:04.691Z,99646.56
2022-10-10T06:05:32.976Z,99646.34
2022-10-10T06:08:09.246Z,99639.47
2022-10-10T06:10:43.931Z,99639.72
2022-10-10T06:13:14.019Z,99624.34
2022-10-10T06:15:42.514Z,99618.38
2022-10-10T06:18:11.826Z,99610.97
2022-10-10T06:20:41.767Z,99609.44
2022-10-10T06:23:10.774Z,99612.94
2022-10-10T06:25:41.261Z,99605.13
2022-10-10T06:28:11.671Z,99601.09
2022-10-10T06:30:45.125Z,99593.81
2022-10-10T06:33:14.185Z,99591.31
2022-10-10T06:35:44.547Z,99590.56
2022-10-10T06:38:13.488Z,99585.22
2022-10-10T06:40:42.312Z,99575.00
2022-10-10T06:43:13.182Z,99566.75
2022-10-10T06:45:43.681Z,99563.38
2022-10-10T06:48:13.904Z,99554.47
2022-10-10T06:50:42.296Z,99555.66
2022-10-10T06:53:10.745Z,99552.91
2022-10-10T06:55:39.125Z,99552.03
2022-10-10T06:58:08.681Z,99539.00
2022-10-10T07:00:37.066Z,99543.91
2022-10-10T07:03:05.567Z,99539.44
2022-10-10T07:05:34.124Z,99536.41
2022-10-10T07:08:02.483Z,99530.00
2022-10-10T07:10:30.961Z,99527.59
2022-10-10T07:12:59.354Z,99528.13
2022-10-10T07:15:27.827Z,99530.31
2022-10-10T07:18:00.210Z,99527.34
2022-10-10T07:20:28.664Z,99517.16
2022-10-10T07:22:57.077Z,99521.50
2022-10-10T07:25:26.221Z,99505.75
2022-10-10T07:27:54.676Z,99494.34
2022-10-10T07:30:23.119Z,99497.19
2022-10-10T07:32:52.015Z,99503.91
2022-10-10T07:35:21.004Z,99492.16
2022-10-10T07:37:49.748Z,99495.84
2022-10-10T07:40:18.174Z,99492.38
2022-10-10T07:42:46.553Z,99489.44
2022-10-10T07:45:14.918Z,99494.13
2022-10-10T07:47:43.298Z,99488.25
2022-10-10T07:50:13.622Z,99493.97
2022-10-10T07:52:42.704Z,99485.94
2022-10-10T07:55:11.955Z,99481.13
2022-10-10T07:57:40.392Z,99472.31
2022-10-10T08:00:10.894Z,99464.50
2022-10-10T08:02:39.301Z,99462.53
2022-10-10T08:05:08.173Z,99458.72
2022-10-10T08:07:36.722Z,99452.31
2022-10-10T08:10:05.780Z,99454.28
2022-10-10T08:12:34.066Z,99450.91
2022-10-10T08:15:02.662Z,99453.19
2022-10-10T08:17:31.122Z,99452.88
2022-10-10T08:19:59.487Z,99443.44
2022-10-10T08:22:27.908Z,99445.50
2022-10-10T08:24:56.636Z,99445.06
2022-10-10T08:27:25.498Z,99445.91
2022-10-10T08:29:54.073Z,99439.06
2022-10-10T08:32:22.610Z,99438.09
2022-10-10T08:34:51.767Z,99434.28
2022-10-10T08:37:20.430Z,99432.22
2022-10-10T08:39:48.909Z,99429.94
2022-10-10T08:42:29.265Z,99431.22
2022-10-10T08:45:02.754Z,99437.88
2022-10-10T08:47:40.027Z,99432.53
2022-10-10T08:50:26.805Z,99430.03
2022-10-10T08:53:07.966Z,99441.63
2022-10-10T08:55:44.860Z,99426.75
2022-10-10T08:58:31.711Z,99435.44
2022-10-10T09:01:12.159Z,99438.28
2022-10-10T09:03:53.220Z,99442.38
2022-10-10T09:06:45.609Z,99438.03
2022-10-10T09:09:33.193Z,99444.22
2022-10-10T09:12:28.524Z,99435.31
2022-10-10T09:15:02.349Z,99439.72
2022-10-10T09:17:40.539Z,99441.13
2022-10-10T09:20:38.143Z,99439.56
2022-10-10T09:23:43.180Z,99449.44
2022-10-10T09:26:16.051Z,99445.19
2022-10-10T09:29:03.327Z,99453.72
2022-10-10T09:31:37.191Z,99448.72
2022-10-10T09:34:14.138Z,99456.69
2022-10-10T09:36:44.124Z,99457.22
2022-10-10T09:39:40.123Z,99454.72
2022-10-10T09:42:14.799Z,99452.97
2022-10-10T09:44:44.742Z,99458.91
2022-10-10T09:47:18.325Z,99457.69
2022-10-10T09:49:49.949Z,99456.50
2022-10-10T09:52:30.485Z,99460.63
2022-10-10T09:55:29.088Z,99454.31
2022-10-10T09:58:02.606Z,99464.34
2022-10-10T10:00:37.940Z,99467.78
2022-10-10T10:03:10.968Z,99471.44
2022-10-10T10:05:40.691Z,99478.63
2022-10-10T10:08:23.258Z,99477.94
2022-10-10T10:10:51.811Z,99490.78
2022-10-10T10:13:28.482Z,99489.56
2022-10-10T10:16:09.271Z,99492.69
2022-10-10T10:18:46.560Z,99489.13
2022-10-10T10:21:27.006Z,99497.13
2022-10-10T10:24:04.718Z,99502.25
2022-10-10T10:26:45.723Z,99493.88
2022-10-10T10:29:29.921Z,99496.22
2022-10-10T10:32:28.658Z,99504.72
2022-10-10T10:35:05.165Z,99507.56
2022-10-10T10:37:57.838Z,99511.94
2022-10-10T10:40:37.607Z,99519.16
2022-10-10T10:43:42.431Z,99508.72
2022-10-10T10:46:29.087Z,99510.28
2022-10-10T10:49:25.638Z,99517.50
2022-10-10T10:52:29.875Z,99520.31
2022-10-10T10:55:30.690Z,99521.91
2022-10-10T11:01:44.915Z,99518.91
2022-10-10T11:05:20.780Z,99529.41
2022-10-10T11:07:53.951Z,99529.97
2022-10-10T11:10:48.466Z,99539.72
2022-10-10T11:13:35.715Z,99548.19
2022-10-10T11:16:47.446Z,99542.38
2022-10-10T11:19:17.088Z,99542.38
2022-10-10T11:22:00.696Z,99548.03
2022-10-10T11:24:32.170Z,99548.06
2022-10-10T11:27:07.466Z,99551.91
2022-10-10T11:30:06.238Z,99558.28
2022-10-10T11:33:11.393Z,99559.81
2022-10-10T11:35:51.082Z,99569.78
2022-10-10T11:38:30.214Z,99565.72
2022-10-10T11:41:15.085Z,99572.13
2022-10-10T11:44:13.384Z,99581.59
2022-10-10T11:47:08.434Z,99576.25
2022-10-10T11:49:57.517Z,99574.47
2022-10-10T11:52:54.247Z,99588.22
2022-10-10T11:55:53.255Z,99591.81
2022-10-10T11:58:38.501Z,99592.31
2022-10-10T12:01:30.213Z,99597.69
2022-10-10T12:03:58.878Z,99590.56
2022-10-10T12:07:05.531Z,99601.53
2022-10-10T12:09:40.632Z,99614.81
2022-10-10T12:12:16.183Z,99616.09
2022-10-10T12:14:54.950Z,99603.84
2022-10-10T12:17:28.613Z,99612.00
2022-10-10T12:19:57.936Z,99622.97
2022-10-10T12:22:30.874Z,99621.19
2022-10-10T12:25:24.059Z,99628.59
2022-10-10T12:28:26.430Z,99633.19
2022-10-10T12:30:58.461Z,99637.25
2022-10-10T12:33:30.347Z,99643.13
2022-10-10T12:35:59.224Z,99639.31
2022-10-10T12:38:31.488Z,99651.53
2022-10-10T12:41:07.053Z,99652.03
2022-10-10T12:43:43.426Z,99655.63
2022-10-10T12:46:35.248Z,99663.78
2022-10-10T12:52:43.311Z,99681.88
2022-10-10T12:55:26.217Z,99680.06
2022-10-10T12:57:58.910Z,99685.94
2022-10-10T13:00:37.258Z,99682.09
2022-10-10T13:03:33.317Z,99683.88
2022-10-10T13:06:28.378Z,99688.97
2022-10-10T13:08:57.690Z,99687.97
2022-10-10T13:11:27.734Z,99693.31
2022-10-10T13:13:58.666Z,99699.16
2022-10-10T13:16:33.765Z,99702.97
2022-10-10T13:19:02.402Z,99713.44
2022-10-10T13:21:36.171Z,99710.09
2022-10-10T13:24:07.493Z,99713.41
2022-10-10T13:26:44.725Z,99717.47
2022-10-10T13:29:35.987Z,99722.81
2022-10-10T13:32:19.745Z,99734.53
2022-10-10T13:35:03.470Z,99730.72
2022-10-10T13:37:32.650Z,99731.22
2022-10-10T13:40:02.146Z,99730.19
2022-10-10T13:42:41.464Z,99739.09
2022-10-10T13:45:30.068Z,99745.22
2022-10-10T13:48:01.964Z,99742.91
2022-10-10T13:50:53.495Z,99743.38
2022-10-10T13:53:25.685Z,99743.91
2022-10-10T13:56:18.077Z,99743.63
2022-10-10T13:59:00.223Z,99750.97
2022-10-10T14:01:47.884Z,99741.81
2022-10-10T14:04:36.809Z,99749.94
2022-10-10T14:07:15.560Z,99756.56
2022-10-10T14:09:52.621Z,99748.66
2022-10-10T14:12:46.091Z,99751.19
2022-10-10T14:15:33.138Z,99767.75
2022-10-10T14:18:01.660Z,99762.38
2022-10-10T14:20:30.153Z,99765.69
2022-10-10T14:23:02.135Z,99763.91
2022-10-10T14:25:30.626Z,99765.16
2022-10-10T14:27:59.074Z,99766.94
2022-10-10T14:30:27.475Z,99766.66
2022-10-10T14:32:55.868Z,99761.56
2022-10-10T14:35:24.456Z,99762.03
2022-10-10T14:37:52.812Z,99762.53
2022-10-10T14:40:23.702Z,99761.50
2022-10-10T14:42:52.097Z,99766.34
2022-10-10T14:45:20.511Z,99766.84
2022-10-10T14:47:48.924Z,99770.41
2022-10-10T14:50:21.048Z,99773.72
2022-10-10T14:52:49.540Z,99774.22
2022-10-10T14:55:17.915Z,99781.09
2022-10-10T14:57:46.349Z,99782.34
2022-10-10T15:00:22.871Z,99784.38
2022-10-10T15:02:51.458Z,99783.63
2022-10-10T15:05:20.248Z,99784.88
2022-10-10T15:07:51.366Z,99791.25
2022-10-10T15:10:33.392Z,99801.19
2022-10-10T15:13:03.306Z,99786.41
2022-10-10T15:15:31.854Z,99791.53
2022-10-10T15:18:01.209Z,99788.72
2022-10-10T15:20:33.494Z,99784.66
2022-10-10T15:23:05.330Z,99789.00
2022-10-10T15:25:34.294Z,99778.56
2022-10-10T15:28:06.342Z,99784.94
2022-10-10T15:30:35.952Z,99788.50
2022-10-10T15:33:05.873Z,99791.28
2022-10-10T15:35:50.605Z,99790.53
2022-10-10T15:38:22.703Z,99789.75
2022-10-10T15:41:09.909Z,99794.31
2022-10-10T15:43:55.491Z,99793.56
2022-10-10T15:46:26.102Z,99789.22
2022-10-10T15:48:55.297Z,99793.28
2022-10-10T15:51:23.682Z,99795.81
2022-10-10T15:53:53.117Z,99797.09
2022-10-10T15:56:21.511Z,99797.59
2022-10-10T15:58:49.954Z,99800.91
2022-10-10T16:01:23.037Z,99801.91
2022-10-10T16:03:51.700Z,99808.00
2022-10-10T16:06:21.973Z,99806.47
2022-10-10T16:08:59.279Z,99809.75
2022-10-10T16:11:33.146Z,99811.75
2022-10-10T16:14:01.588Z,99809.97
2022-10-10T16:16:30.191Z,99809.19
2022-10-10T16:18:58.694Z,99814.03
2022-10-10T16:21:27.388Z,99809.69
2022-10-10T16:23:58.124Z,99813.25
2022-10-10T16:26:34.072Z,99817.31
2022-10-10T16:29:03.305Z,99815.28
2022-10-10T16:31:32.059Z,99818.59
2022-10-10T16:34:01.362Z,99814.53
2022-10-10T16:36:32.635Z,99811.44
2022-10-10T16:39:01.369Z,99815.78
2022-10-10T16:41:48.991Z,99820.63
2022-10-10T16:44:18.736Z,99822.66
2022-10-10T16:46:47.510Z,99821.59
2022-10-10T16:49:21.434Z,99818.78
2022-10-10T16:51:49.938Z,99820.81
2022-10-10T16:54:18.397Z,99817.25
2022-10-10T16:56:46.813Z,99822.84
2022-10-10T16:59:15.207Z,99831.25
2022-10-10T17:01:43.562Z,99825.66
2022-10-10T17:04:12.065Z,99823.63
2022-10-10T17:06:40.491Z,99825.66
2022-10-10T17:09:12.322Z,99821.13
2022-10-10T17:19:25.520Z,99814.25
2022-10-10T17:21:53.794Z,99813.47
2022-10-10T17:24:22.166Z,99820.63
2022-10-10T17:26:50.641Z,99821.38
2022-10-10T17:29:19.155Z,99819.34
2022-10-10T17:31:47.547Z,99815.78
2022-10-10T17:34:16.661Z,99808.16
2022-10-10T17:36:44.985Z,99820.13
2022-10-10T17:39:13.370Z,99814.25
2022-10-10T17:41:42.055Z,99808.66
2022-10-10T17:44:11.446Z,99805.84
2022-10-10T17:46:40.313Z,99800.25
2022-10-10T17:49:12.182Z,99794.66
2022-10-10T17:51:41.771Z,99796.69
2022-10-10T17:56:40.044Z,99788.28
2022-10-10T17:59:10.396Z,99782.38
2022-10-10T18:01:39.704Z,99780.84
2022-10-10T18:04:08.875Z,99775.75
2022-10-10T18:06:39.127Z,99774.97
2022-10-10T18:09:08.333Z,99770.66
2022-10-10T18:11:36.753Z,99770.66
2022-10-10T18:14:05.453Z,99770.38
2022-10-10T18:16:36.162Z,99768.06
2022-10-10T18:19:09.102Z,99774.16
2022-10-10T18:21:37.727Z,99761.94
2022-10-10T18:24:06.310Z,99757.59
2022-10-10T18:26:35.884Z,99746.63
2022-10-10T18:29:04.348Z,99751.16
2022-10-10T18:31:34.941Z,99748.88
2022-10-10T18:34:04.535Z,99746.56
2022-10-10T18:36:36.118Z,99751.13
2022-10-10T18:39:12.506Z,99742.44
2022-10-10T18:41:41.500Z,99749.81
2022-10-10T18:44:13.332Z,99736.81
2022-10-10T18:46:41.867Z,99740.09
2022-10-10T18:49:12.590Z,99742.91
2022-10-10T18:51:43.947Z,99743.41
2022-10-10T18:54:17.758Z,99749.50
2022-10-10T18:56:47.985Z,99746.69
2022-10-10T18:59:23.097Z,99739.56
2022-10-10T19:01:53.325Z,99741.59
2022-10-10T19:04:22.323Z,99740.84
2022-10-10T19:06:56.189Z,99739.56
2022-10-10T19:09:26.308Z,99729.63
2022-10-10T19:11:55.015Z,99727.34
2022-10-10T19:14:23.416Z,99732.94
2022-10-10T19:16:51.957Z,99727.84
2022-10-10T19:19:20.805Z,99725.03
2022-10-10T19:21:49.828Z,99722.22
2022-10-10T19:24:21.880Z,99720.69
2022-10-10T19:26:56.632Z,99725.53
2022-10-10T19:29:27.009Z,99719.94
2022-10-10T19:31:56.893Z,99724.00
2022-10-10T19:34:25.621Z,99726.00
2022-10-10T19:36:54.644Z,99715.31
2022-10-10T19:39:23.038Z,99722.94
2022-10-10T19:41:51.482Z,99711.72
2022-10-10T19:44:19.927Z,99707.41
2022-10-10T19:46:48.421Z,99697.47
2022-10-10T19:49:16.834Z,99704.84
2022-10-10T19:51:45.239Z,99703.28
2022-10-10T19:54:13.633Z,99701.00
2022-10-10T19:56:42.026Z,99700.72
2022-10-10T19:59:10.465Z,99699.69
2022-10-10T20:01:39.130Z,99697.38
2022-10-10T20:04:07.659Z,99697.88
2022-10-10T20:06:36.001Z,99693.78
2022-10-10T20:09:08.462Z,99690.22
2022-10-10T20:11:39.835Z,99689.94
2022-10-10T20:14:09.070Z,99698.06
2022-10-10T20:16:37.524Z,99704.91
2022-10-10T20:19:06.069Z,99695.44
2022-10-10T20:21:35.631Z,99701.50
2022-10-10T20:24:07.506Z,99704.81
2022-10-10T20:26:37.169Z,99694.88
2022-10-10T20:29:06.322Z,99698.16
2022-10-10T20:31:36.564Z,99687.97
2022-10-10T20:34:06.348Z,99694.84
2022-10-10T20:36:37.550Z,99689.72
2022-10-10T20:39:09.535Z,99693.78
2022-10-10T20:41:40.106Z,99692.75
2022-10-10T20:44:12.161Z,99698.34
2022-10-10T20:46:42.999Z,99699.59
2022-10-10T20:49:22.459Z,99692.97
2022-10-10T20:51:52.732Z,99692.97
2022-10-10T20:54:23.015Z,99684.59
2022-10-10T20:56:51.940Z,99685.84
2022-10-10T20:59:21.962Z,99679.47
2022-10-10T21:01:50.600Z,99675.16
2022-10-10T21:04:19.071Z,99680.75
2022-10-10T21:06:47.503Z,99663.69
2022-10-10T21:09:16.836Z,99664.19
2022-10-10T21:11:48.692Z,99661.59
2022-10-10T21:14:20.055Z,99664.38
2022-10-10T21:16:49.335Z,99669.69
2022-10-10T21:19:18.221Z,99670.97
2022-10-10T21:21:46.823Z,99664.59
2022-10-10T21:24:15.928Z,99667.88
2022-10-10T21:26:44.701Z,99675.50
2022-10-10T21:29:13.236Z,99676.00
2022-10-10T21:31:42.451Z,99675.25
2022-10-10T21:34:14.880Z,99672.94
2022-10-10T21:36:43.329Z,99671.66
2022-10-10T21:39:13.308Z,99664.56
2022-10-10T21:41:42.430Z,99663.78
2022-10-10T21:44:11.705Z,99660.97
2022-10-10T21:46:40.029Z,99658.69
2022-10-10T21:49:11.440Z,99659.44
2022-10-10T21:51:42.543Z,99660.72
2022-10-10T21:54:11.598Z,99664.75
2022-10-10T21:56:40.679Z,99666.78
2022-10-10T21:59:09.746Z,99662.75
2022-10-10T22:01:38.471Z,99664.75
2022-10-10T22:04:07.107Z,99677.47
2022-10-10T22:06:35.576Z,99664.28
2022-10-10T22:09:05.005Z,99669.09
2022-10-10T22:11:35.406Z,99679.78
2022-10-10T22:14:05.036Z,99681.03
2022-10-10T22:16:34.855Z,99670.63
2022-10-10T22:19:04.280Z,99677.00
2022-10-10T22:21:35.745Z,99681.81
2022-10-10T22:24:07.472Z,99692.72
2022-10-10T22:26:36.374Z,99694.75
2022-10-10T22:29:05.731Z,99693.22
2022-10-10T22:31:38.436Z,99702.38
2022-10-10T22:34:07.913Z,99712.78
2022-10-10T22:36:36.765Z,99715.56
2022-10-10T22:39:06.577Z,99711.53
2022-10-10T22:41:34.941Z,99716.84
2022-10-10T22:44:04.225Z,99715.78
2022-10-10T22:46:32.588Z,99724.19
2022-10-10T22:49:00.978Z,99727.47
2022-10-10T22:51:29.498Z,99724.88
2022-10-10T22:53:58.303Z,99721.00
2022-10-10T22:56:26.705Z,99735.19
2022-10-10T22:58:55.041Z,99736.19
2022-10-10T23:01:26.804Z,99739.94
2022-10-10T23:03:59.870Z,99750.84
2022-10-10T23:06:28.860Z,99748.53
2022-10-10T23:08:57.481Z,99756.16
2022-10-10T23:15:07.142Z,99761.75
2022-10-10T23:17:36.125Z,99767.06
2022-10-10T23:20:05.108Z,99773.91
2022-10-10T23:22:33.412Z,99773.91
2022-10-10T23:25:01.828Z,99777.94
2022-10-10T23:27:30.180Z,99784.81
2022-10-10T23:29:58.563Z,99781.22
2022-10-10T23:32:30.237Z,99791.16
2022-10-10T23:34:58.562Z,99790.66
2022-10-10T23:37:28.675Z,99790.66
2022-10-10T23:39:57.178Z,99793.75
2022-10-10T23:42:25.645Z,99798.56
2022-10-10T23:44:54.045Z,99808.75
2022-10-10T23:47:22.602Z,99806.72
2022-10-10T23:49:50.993Z,99809.03
2022-10-10T23:52:19.357Z,99818.47
2022-10-10T23:54:47.773Z,99813.16
2022-10-10T23:57:16.085Z,99818.53
2022-10-10T23:59:45.050Z,99821.94
